Huvudsida
METAR-TAF:

METAR-TAF

Flygplatser :

Frankfurt am Mains flygplats

Frankfurt, Tyskland

latitud: 50-03N, longitud: 008-36E, höjd: 111 m

Aktuellt väderrapport

Denna rapport gjordes för 10 minuter sedan, klockan 22:50 UTC
Vind 2 kt varierande vindriktning
Temperatur 13°C
Fuktighet 77%
Tryck 1029 hPa
Sikt 10 km eller mer
Inga moln under 1 500 m eller inga cumulonimbus

METAR: EDDF 272250Z VRB02KT CAVOK 13/09 Q1029 NOSIG

Tid: 01:00 (23:00 UTC)

Väderprognos

Denna rapport gjordes för 6 timmar och 0 minuter sedan, klockan 17:00 UTC
Prognos gäller från 27 kl. 18 UTC till 28 kl. 24 UTC
Vind 5 kt från nord/nordost
Sikt 10 km eller mer
Inga moln under 1 500 m eller inga cumulonimbus
Blir
från 28 kl. 01 UTC till 28 kl. 03 UTC
Vind 10 kt från nord/nordost

TAF: EDDF 271700Z 2718/2824 02005KT CAVOK BECMG 2801/2803 02010KT

Aktuella väderrapporter och prognoser från 4000 flygplatser (METAR- och TAF-rapporter).

De tillgängliga stationerna syns som gula och röda prickar på kartan.

För musen över prickarna för att se namnen på stationerna.

Klicka sedan för att få väderrapporter och prognoser.

För att ändra kartan: Klicka på de gröna knapparna med ett svart kors på för att zooma in; den gröna knappen med ett streck på för att zooma ut; eller på de gröna pilarna för angränsande kartor.


METAR-TAF: